createdAt,value
2018-01-15T00:00:17.883Z,-1.26
2018-01-15T00:02:46.393Z,-1.07
2018-01-15T00:05:14.030Z,-1.04
2018-01-15T00:07:42.300Z,-1.15
2018-01-15T00:10:09.900Z,-1.07
2018-01-15T00:12:38.096Z,-1.04
2018-01-15T00:15:05.816Z,-1.00
2018-01-15T00:17:33.688Z,-1.05
2018-01-15T00:20:01.457Z,-1.00
2018-01-15T00:22:33.943Z,-1.08
2018-01-15T00:25:01.566Z,-1.03
2018-01-15T00:27:29.135Z,-1.33
2018-01-15T00:29:56.815Z,-1.21
2018-01-15T00:32:24.526Z,-1.32
2018-01-15T00:34:52.288Z,-1.19
2018-01-15T00:37:20.081Z,-1.33
2018-01-15T00:39:47.814Z,-1.25
2018-01-15T00:42:15.493Z,-1.38
2018-01-15T00:44:43.298Z,-1.35
2018-01-15T00:47:11.368Z,-1.38
2018-01-15T00:49:39.414Z,-1.57
2018-01-15T00:52:07.246Z,-1.44
2018-01-15T00:54:35.303Z,-1.42
2018-01-15T00:57:04.051Z,-1.40
2018-01-15T00:59:32.259Z,-1.43
2018-01-15T01:02:00.392Z,-1.48
2018-01-15T01:04:28.248Z,-1.56
2018-01-15T01:06:57.681Z,-1.49
2018-01-15T01:09:25.598Z,-1.57
2018-01-15T01:11:53.215Z,-1.67
2018-01-15T01:14:20.843Z,-1.56
2018-01-15T01:16:48.556Z,-1.59
2018-01-15T01:19:16.136Z,-1.54
2018-01-15T01:21:44.695Z,-1.46
2018-01-15T01:24:12.658Z,-1.47
2018-01-15T01:26:40.213Z,-1.43
2018-01-15T01:29:07.827Z,-1.48
2018-01-15T01:31:35.502Z,-1.46
2018-01-15T01:34:03.097Z,-1.74
2018-01-15T01:36:33.599Z,-1.51
2018-01-15T01:39:04.456Z,-1.58
2018-01-15T01:41:35.717Z,-1.76
2018-01-15T01:44:11.379Z,-1.73
2018-01-15T01:46:39.456Z,-1.71
2018-01-15T01:49:10.007Z,-1.80
2018-01-15T01:51:40.035Z,-1.81
2018-01-15T01:54:07.769Z,-1.76
2018-01-15T01:56:35.434Z,-1.70
2018-01-15T01:59:03.233Z,-1.69
2018-01-15T02:01:30.947Z,-1.78
2018-01-15T02:03:58.543Z,-1.65
2018-01-15T02:06:26.222Z,-1.65
2018-01-15T02:08:53.951Z,-1.51
2018-01-15T02:11:21.697Z,-1.49
2018-01-15T02:13:49.388Z,-1.47
2018-01-15T02:16:17.173Z,-1.76
2018-01-15T02:18:44.809Z,-1.71
2018-01-15T02:21:12.478Z,-1.57
2018-01-15T02:23:40.164Z,-1.72
2018-01-15T02:26:07.975Z,-1.55
2018-01-15T02:28:35.652Z,-1.90
2018-01-15T02:31:03.366Z,-1.71
2018-01-15T02:33:30.964Z,-1.61
2018-01-15T02:35:58.767Z,-1.83
2018-01-15T02:38:26.467Z,-1.73
2018-01-15T02:40:55.032Z,-1.82
2018-01-15T02:43:22.592Z,-2.13
2018-01-15T02:45:50.570Z,-1.70
2018-01-15T02:48:18.117Z,-1.68
2018-01-15T02:50:45.986Z,-2.08
2018-01-15T02:53:13.657Z,-2.04
2018-01-15T02:55:41.276Z,-1.74
2018-01-15T02:58:09.057Z,-1.88
2018-01-15T03:00:36.760Z,-1.94
2018-01-15T03:03:04.316Z,-1.90
2018-01-15T03:05:32.627Z,-2.02
2018-01-15T03:08:00.312Z,-1.68
2018-01-15T03:10:27.854Z,-1.71
2018-01-15T03:12:55.397Z,-1.80
2018-01-15T03:15:23.457Z,-1.73
2018-01-15T03:17:51.058Z,-1.86
2018-01-15T03:20:18.607Z,-1.80
2018-01-15T03:22:46.757Z,-1.98
2018-01-15T03:25:14.321Z,-1.98
2018-01-15T03:27:42.113Z,-1.87
2018-01-15T03:30:09.855Z,-1.85
2018-01-15T03:32:37.443Z,-2.09
2018-01-15T03:35:05.007Z,-2.05
2018-01-15T03:37:32.649Z,-2.16
2018-01-15T03:40:00.251Z,-2.09
2018-01-15T03:42:28.405Z,-2.14
2018-01-15T03:44:56.081Z,-1.94
2018-01-15T03:47:23.963Z,-1.74
2018-01-15T03:49:51.601Z,-2.02
2018-01-15T03:52:19.293Z,-2.09
2018-01-15T03:54:46.896Z,-2.16
2018-01-15T03:57:14.728Z,-1.85
2018-01-15T03:59:42.402Z,-2.03
2018-01-15T04:02:10.105Z,-2.00
2018-01-15T04:04:37.629Z,-2.10
2018-01-15T04:07:05.200Z,-2.40
2018-01-15T04:09:33.771Z,-2.33
2018-01-15T04:12:01.456Z,-2.34
2018-01-15T04:14:29.279Z,-2.16
2018-01-15T04:16:56.956Z,-2.08
2018-01-15T04:19:24.510Z,-2.06
2018-01-15T04:21:52.411Z,-2.21
2018-01-15T04:24:20.077Z,-2.30
2018-01-15T04:26:47.662Z,-2.25
2018-01-15T04:29:15.224Z,-2.16
2018-01-15T04:31:43.017Z,-2.16
2018-01-15T04:34:10.620Z,-2.10
2018-01-15T04:36:38.396Z,-2.10
2018-01-15T04:39:06.093Z,-2.07
2018-01-15T04:41:33.693Z,-2.15
2018-01-15T04:44:01.311Z,-2.20
2018-01-15T04:46:28.985Z,-2.19
2018-01-15T04:48:57.061Z,-2.07
2018-01-15T04:51:24.591Z,-2.00
2018-01-15T04:53:52.272Z,-2.08
2018-01-15T04:56:19.837Z,-2.18
2018-01-15T04:58:47.391Z,-1.94
2018-01-15T05:01:15.148Z,-2.00
2018-01-15T05:03:42.951Z,-2.16
2018-01-15T05:06:10.612Z,-1.88
2018-01-15T05:08:38.298Z,-2.05
2018-01-15T05:11:06.071Z,-1.91
2018-01-15T05:13:33.853Z,-1.74
2018-01-15T05:16:01.584Z,-1.85
2018-01-15T05:18:29.645Z,-2.15
2018-01-15T05:20:57.492Z,-1.94
2018-01-15T05:23:25.512Z,-1.99
2018-01-15T05:25:54.196Z,-1.87
2018-01-15T05:28:22.114Z,-2.02
2018-01-15T05:30:49.864Z,-1.91
2018-01-15T05:33:17.443Z,-1.71
2018-01-15T05:35:45.007Z,-1.93
2018-01-15T05:38:13.129Z,-1.77
2018-01-15T05:40:40.693Z,-1.89
2018-01-15T05:43:09.142Z,-1.75
2018-01-15T05:45:37.458Z,-1.77
2018-01-15T05:48:05.234Z,-1.81
2018-01-15T05:50:32.865Z,-1.63
2018-01-15T05:53:01.450Z,-1.76
2018-01-15T05:55:29.050Z,-1.64
2018-01-15T05:57:57.504Z,-1.67
2018-01-15T06:00:25.209Z,-1.61
2018-01-15T06:02:54.500Z,-1.55
2018-01-15T06:05:22.607Z,-1.29
2018-01-15T06:07:50.595Z,-1.69
2018-01-15T06:10:18.259Z,-1.84
2018-01-15T06:12:46.174Z,-1.69
2018-01-15T06:15:13.880Z,-1.58
2018-01-15T06:17:42.378Z,-1.98
2018-01-15T06:20:09.959Z,-1.93
2018-01-15T06:22:37.703Z,-1.78
2018-01-15T06:25:05.786Z,-1.68
2018-01-15T06:27:33.342Z,-1.99
2018-01-15T06:30:01.062Z,-1.92
2018-01-15T06:32:28.802Z,-1.83
2018-01-15T06:34:56.425Z,-1.87
2018-01-15T06:37:24.128Z,-1.54
2018-01-15T06:39:51.828Z,-1.47
2018-01-15T06:42:19.364Z,-1.35
2018-01-15T06:44:47.165Z,-1.84
2018-01-15T06:47:14.822Z,-1.99
2018-01-15T06:49:42.831Z,-1.92
2018-01-15T06:52:10.395Z,-1.65
2018-01-15T06:54:38.064Z,-1.61
2018-01-15T06:57:05.646Z,-1.85
2018-01-15T06:59:33.244Z,-1.32
2018-01-15T07:02:00.913Z,-1.37
2018-01-15T07:04:28.537Z,-1.55
2018-01-15T07:06:56.138Z,-1.38
2018-01-15T07:09:23.810Z,-1.30
2018-01-15T07:11:51.342Z,-1.57
2018-01-15T07:14:18.921Z,-1.28
2018-01-15T07:16:46.594Z,-1.53
2018-01-15T07:19:14.199Z,-1.54
2018-01-15T07:21:42.523Z,-1.13
2018-01-15T07:24:10.234Z,-0.97
2018-01-15T07:26:37.836Z,-0.64
2018-01-15T07:29:05.597Z,-0.54
2018-01-15T07:31:33.335Z,-0.75
2018-01-15T07:34:00.939Z,-0.69
2018-01-15T07:36:41.222Z,-0.40
2018-01-15T07:39:11.681Z,-0.32
2018-01-15T07:41:39.565Z,-0.08
2018-01-15T07:44:10.899Z,-0.01
2018-01-15T07:46:38.453Z,-0.37
2018-01-15T07:49:06.130Z,-0.49
2018-01-15T07:51:33.840Z,-0.45
2018-01-15T07:54:01.439Z,-0.78
2018-01-15T07:56:29.114Z,-0.17
2018-01-15T07:58:56.732Z,0.23
2018-01-15T08:01:24.856Z,-0.34
2018-01-15T08:03:53.061Z,-0.26
2018-01-15T08:06:20.859Z,-0.27
2018-01-15T08:08:49.941Z,-0.89
2018-01-15T08:11:17.543Z,-0.59
2018-01-15T08:13:45.280Z,-0.52
2018-01-15T08:16:12.982Z,-0.03
2018-01-15T08:18:40.590Z,-0.62
2018-01-15T08:21:08.292Z,-0.52
2018-01-15T08:23:35.983Z,-0.77
2018-01-15T08:26:03.823Z,-0.69
2018-01-15T08:28:31.904Z,-0.87
2018-01-15T08:31:00.931Z,-0.79
2018-01-15T08:33:28.593Z,-0.59
2018-01-15T08:35:56.605Z,-0.07
2018-01-15T08:38:24.345Z,-0.30
2018-01-15T08:40:52.177Z,-0.61
2018-01-15T08:43:19.782Z,-0.48
2018-01-15T08:45:47.501Z,-0.30
2018-01-15T08:48:15.214Z,-0.64
2018-01-15T08:50:42.861Z,-0.31
2018-01-15T08:53:11.104Z,-0.03
2018-01-15T08:55:39.533Z,-0.38
2018-01-15T08:58:07.324Z,-0.29
2018-01-15T09:00:35.951Z,-0.04
2018-01-15T09:03:04.414Z,0.11
2018-01-15T09:05:33.065Z,-0.24
2018-01-15T09:08:00.776Z,0.09
2018-01-15T09:10:28.383Z,-0.57
2018-01-15T09:12:55.992Z,-0.51
2018-01-15T09:15:24.137Z,-0.73
2018-01-15T09:17:51.744Z,-0.23
2018-01-15T09:20:19.485Z,-0.23
2018-01-15T09:22:47.196Z,-0.45
2018-01-15T09:25:14.760Z,-0.39
2018-01-15T09:27:42.309Z,-0.05
2018-01-15T09:30:15.132Z,-0.35
2018-01-15T09:32:43.214Z,-0.20
2018-01-15T09:35:13.507Z,-0.46
2018-01-15T09:37:44.707Z,-0.31
2018-01-15T09:40:13.672Z,-0.53
2018-01-15T09:46:13.119Z,-0.67
2018-01-15T09:48:41.672Z,-0.54
2018-01-15T09:51:11.805Z,-0.04
2018-01-15T09:53:40.400Z,0.10
2018-01-15T09:56:14.611Z,0.29
2018-01-15T09:58:42.892Z,0.52
2018-01-15T10:01:11.929Z,0.47
2018-01-15T10:03:41.846Z,0.66
2018-01-15T10:06:13.729Z,0.73
2018-01-15T10:08:43.839Z,0.89
2018-01-15T10:11:15.473Z,0.78
2018-01-15T10:13:46.463Z,0.62
2018-01-15T10:16:16.895Z,0.85
2018-01-15T10:18:45.076Z,0.89
2018-01-15T10:21:14.190Z,0.70
2018-01-15T10:23:42.881Z,0.44
2018-01-15T10:26:10.852Z,0.67
2018-01-15T10:28:38.464Z,0.95
2018-01-15T10:31:06.171Z,0.52
2018-01-15T10:33:33.817Z,0.57
2018-01-15T10:36:01.414Z,0.59
2018-01-15T10:38:29.344Z,0.52
2018-01-15T10:40:56.914Z,0.42
2018-01-15T10:43:24.754Z,0.57
2018-01-15T10:45:52.583Z,0.28
2018-01-15T10:48:20.782Z,0.37
2018-01-15T10:50:48.439Z,0.38
2018-01-15T10:53:16.156Z,0.22
2018-01-15T10:55:44.111Z,0.34
2018-01-15T10:58:11.720Z,0.20
2018-01-15T11:00:45.186Z,0.40
2018-01-15T11:03:12.816Z,0.36
2018-01-15T11:05:40.772Z,0.36
2018-01-15T11:08:08.998Z,0.44
2018-01-15T11:10:37.432Z,0.51
2018-01-15T11:13:05.090Z,0.37
2018-01-15T11:15:33.035Z,0.30
2018-01-15T11:18:00.680Z,0.74
2018-01-15T11:20:28.584Z,0.63
2018-01-15T11:22:57.214Z,0.52
2018-01-15T11:25:25.270Z,0.55
2018-01-15T11:27:53.892Z,0.52
2018-01-15T11:30:21.666Z,0.63
2018-01-15T11:32:50.672Z,0.49
2018-01-15T11:35:18.432Z,0.21
2018-01-15T11:37:46.435Z,0.31
2018-01-15T11:40:14.106Z,0.67
2018-01-15T11:42:41.786Z,0.38
2018-01-15T11:45:10.025Z,0.45
2018-01-15T11:47:37.837Z,0.30
2018-01-15T11:50:05.693Z,0.50
2018-01-15T11:52:34.257Z,0.29
2018-01-15T11:55:01.961Z,0.14
2018-01-15T11:57:29.645Z,0.35
2018-01-15T11:59:58.058Z,0.30
2018-01-15T12:02:25.773Z,0.36
2018-01-15T12:04:53.435Z,0.48
2018-01-15T12:07:21.278Z,0.61
2018-01-15T12:09:49.172Z,-0.01
2018-01-15T12:12:16.814Z,0.14
2018-01-15T12:14:44.510Z,0.51
2018-01-15T12:17:12.253Z,0.49
2018-01-15T12:19:39.906Z,0.46
2018-01-15T12:22:08.172Z,0.85
2018-01-15T12:24:35.927Z,1.00
2018-01-15T12:27:03.585Z,0.57
2018-01-15T12:29:31.895Z,0.91
2018-01-15T12:31:59.624Z,0.84
2018-01-15T12:34:27.951Z,0.26
2018-01-15T12:36:55.866Z,0.40
2018-01-15T12:39:23.601Z,0.48
2018-01-15T12:41:51.814Z,0.60
2018-01-15T12:47:15.451Z,0.76
2018-01-15T12:49:43.275Z,0.80
2018-01-15T12:52:10.964Z,0.60
2018-01-15T12:54:38.642Z,0.59
2018-01-15T12:57:06.503Z,0.41
2018-01-15T12:59:34.149Z,0.59
2018-01-15T13:02:02.057Z,0.53
2018-01-15T13:04:40.031Z,0.78
2018-01-15T13:07:19.556Z,0.51
2018-01-15T13:09:47.233Z,0.73
2018-01-15T13:12:14.917Z,0.72
2018-01-15T13:14:42.650Z,0.93
2018-01-15T13:17:11.237Z,0.26
2018-01-15T13:19:39.165Z,0.54
2018-01-15T13:22:06.902Z,0.47
2018-01-15T13:24:34.674Z,0.54
2018-01-15T13:27:02.908Z,0.45
2018-01-15T13:29:30.684Z,0.73
2018-01-15T13:31:58.405Z,0.53
2018-01-15T13:34:26.117Z,0.75
2018-01-15T13:36:53.902Z,0.67
2018-01-15T13:39:21.712Z,0.42
2018-01-15T13:41:50.627Z,0.48
2018-01-15T13:44:19.489Z,0.42
2018-01-15T13:46:47.265Z,0.63
2018-01-15T13:49:15.488Z,0.39
2018-01-15T13:51:43.152Z,0.34
2018-01-15T13:56:49.426Z,0.51
2018-01-15T13:59:17.180Z,0.27
2018-01-15T14:01:44.888Z,0.64
2018-01-15T14:04:13.701Z,0.47
2018-01-15T14:06:41.400Z,0.32
2018-01-15T14:09:09.227Z,0.18
2018-01-15T14:11:36.992Z,0.16
2018-01-15T14:14:04.858Z,0.11
2018-01-15T14:16:33.953Z,0.29
2018-01-15T14:19:02.996Z,-0.02
2018-01-15T14:21:37.955Z,0.19
2018-01-15T14:24:07.247Z,0.10
2018-01-15T14:26:35.664Z,-0.11
2018-01-15T14:29:03.851Z,-0.08
2018-01-15T14:31:32.635Z,-0.06
2018-01-15T14:34:00.371Z,0.16
2018-01-15T14:36:28.143Z,0.12
2018-01-15T14:38:56.414Z,-0.01
2018-01-15T14:41:25.738Z,0.00
2018-01-15T14:43:53.371Z,-0.04
2018-01-15T14:46:21.178Z,-0.36
2018-01-15T14:48:48.814Z,-0.17
2018-01-15T14:51:16.487Z,0.11
2018-01-15T14:53:48.591Z,0.07
2018-01-15T14:56:16.365Z,-0.08
2018-01-15T14:59:02.772Z,-0.07
2018-01-15T15:01:33.494Z,-0.05
2018-01-15T15:04:02.630Z,-0.05
2018-01-15T15:06:36.098Z,-0.11
2018-01-15T15:09:04.998Z,-0.11
2018-01-15T15:11:33.106Z,-0.16
2018-01-15T15:14:03.641Z,-0.02
2018-01-15T15:16:32.975Z,0.06
2018-01-15T15:19:00.982Z,-0.13
2018-01-15T15:21:29.574Z,-0.18
2018-01-15T15:23:57.244Z,-0.30
2018-01-15T15:26:25.021Z,-0.28
2018-01-15T15:28:53.205Z,-0.03
2018-01-15T15:31:21.013Z,0.12
2018-01-15T15:33:49.469Z,-0.06
2018-01-15T15:36:17.227Z,-0.07
2018-01-15T15:38:44.930Z,0.06
2018-01-15T15:42:03.306Z,0.03
2018-01-15T15:45:01.428Z,-0.10
2018-01-15T15:47:29.003Z,-0.51
2018-01-15T15:49:56.819Z,-0.12
2018-01-15T15:52:24.562Z,-0.10
2018-01-15T15:54:52.340Z,-0.32
2018-01-15T15:57:22.019Z,-0.37
2018-01-15T15:59:50.685Z,-0.37
2018-01-15T16:02:18.486Z,-0.28
2018-01-15T16:04:46.095Z,-0.53
2018-01-15T16:07:13.742Z,-0.37
2018-01-15T16:09:42.337Z,-0.44
2018-01-15T16:12:09.948Z,-0.55
2018-01-15T16:14:38.317Z,-0.42
2018-01-15T16:17:06.028Z,-0.70
2018-01-15T16:19:33.959Z,-0.60
2018-01-15T16:22:13.470Z,-0.70
2018-01-15T16:24:41.531Z,-0.51
2018-01-15T16:27:09.343Z,-0.36
2018-01-15T16:29:37.142Z,-0.67
2018-01-15T16:32:04.853Z,-0.43
2018-01-15T16:34:32.553Z,-0.55
2018-01-15T16:37:00.593Z,-0.84
2018-01-15T16:39:28.298Z,-0.62
2018-01-15T16:41:55.971Z,-0.64
2018-01-15T16:44:23.582Z,-0.54
2018-01-15T16:46:51.320Z,-0.44
2018-01-15T16:49:18.984Z,-0.40
2018-01-15T16:51:46.574Z,-0.36
2018-01-15T16:54:14.256Z,-0.39
2018-01-15T16:56:42.303Z,-0.52
2018-01-15T17:01:37.868Z,-0.54
2018-01-15T17:04:05.608Z,-0.51
2018-01-15T17:06:33.396Z,-0.73
2018-01-15T17:09:01.168Z,-0.60
2018-01-15T17:11:28.730Z,-0.45
2018-01-15T17:13:56.556Z,-0.70
2018-01-15T17:16:24.293Z,-0.74
2018-01-15T17:18:52.292Z,-0.77
2018-01-15T17:21:21.016Z,-0.69
2018-01-15T17:23:48.705Z,-0.82
2018-01-15T17:26:16.495Z,-0.86
2018-01-15T17:28:44.187Z,-0.93
2018-01-15T17:31:12.682Z,-1.05
2018-01-15T17:33:40.322Z,-0.66
2018-01-15T17:36:08.047Z,-0.73
2018-01-15T17:38:36.345Z,-1.07
2018-01-15T17:41:04.184Z,-0.79
2018-01-15T17:43:32.494Z,-0.96
2018-01-15T17:46:00.218Z,-0.95
2018-01-15T17:48:27.860Z,-1.00
2018-01-15T17:50:55.410Z,-1.09
2018-01-15T17:53:23.134Z,-0.94
2018-01-15T17:55:51.467Z,-1.01
2018-01-15T17:58:19.119Z,-1.13
2018-01-15T18:00:47.128Z,-1.12
2018-01-15T18:03:15.272Z,-1.18
2018-01-15T18:05:42.924Z,-1.05
2018-01-15T18:08:10.717Z,-0.97
2018-01-15T18:10:38.985Z,-1.05
2018-01-15T18:13:06.570Z,-1.08
2018-01-15T18:15:34.324Z,-0.96
2018-01-15T18:18:02.717Z,-0.86
2018-01-15T18:20:31.252Z,-0.95
2018-01-15T18:22:58.986Z,-0.92
2018-01-15T18:25:26.701Z,-0.94
2018-01-15T18:27:55.275Z,-1.09
2018-01-15T18:30:23.398Z,-0.96
2018-01-15T18:32:51.142Z,-0.98
2018-01-15T18:35:24.010Z,-1.06
2018-01-15T18:37:55.428Z,-0.86
2018-01-15T18:40:32.836Z,-0.88
2018-01-15T18:43:06.569Z,-0.84
2018-01-15T18:45:34.241Z,-0.85
2018-01-15T18:48:03.186Z,-1.34
2018-01-15T18:50:31.025Z,-0.99
2018-01-15T18:53:02.637Z,-0.97
2018-01-15T18:55:30.362Z,-1.02
2018-01-15T18:58:16.295Z,-0.96
2018-01-15T19:00:44.073Z,-0.95
2018-01-15T19:03:11.657Z,-1.00
2018-01-15T19:05:39.517Z,-0.91
2018-01-15T19:08:07.317Z,-0.98
2018-01-15T19:10:34.916Z,-0.92
2018-01-15T19:13:02.496Z,-1.12
2018-01-15T19:15:30.221Z,-1.01
2018-01-15T19:17:58.142Z,-0.76
2018-01-15T19:20:26.237Z,-0.89
2018-01-15T19:22:53.972Z,-0.92
2018-01-15T19:25:21.659Z,-0.99
2018-01-15T19:27:49.408Z,-0.95
2018-01-15T19:30:17.381Z,-0.77
2018-01-15T19:32:45.465Z,-0.87
2018-01-15T19:35:16.035Z,-0.86
2018-01-15T19:37:47.857Z,-1.11
2018-01-15T19:40:15.457Z,-1.06
2018-01-15T19:42:43.971Z,-1.20
2018-01-15T19:45:17.138Z,-1.23
2018-01-15T19:47:51.454Z,-1.00
2018-01-15T19:50:28.822Z,-1.20
2018-01-15T19:53:02.033Z,-1.35
2018-01-15T19:55:35.543Z,-1.22
2018-01-15T19:58:09.522Z,-0.86
2018-01-15T20:00:42.846Z,-1.01
2018-01-15T20:03:16.088Z,-1.06
2018-01-15T20:05:49.463Z,-1.01
2018-01-15T20:08:22.483Z,-1.13
2018-01-15T20:10:52.635Z,-1.04
2018-01-15T20:13:20.262Z,-1.03
2018-01-15T20:15:48.710Z,-0.83
2018-01-15T20:18:17.337Z,-1.06
2018-01-15T20:20:44.936Z,-1.28
2018-01-15T20:23:12.521Z,-1.27
2018-01-15T20:25:40.337Z,-1.43
2018-01-15T20:28:08.680Z,-1.23
2018-01-15T20:30:36.403Z,-1.39
2018-01-15T20:33:03.942Z,-1.29
2018-01-15T20:35:31.511Z,-1.46
2018-01-15T20:37:59.205Z,-1.14
2018-01-15T20:40:27.085Z,-1.34
2018-01-15T20:42:54.905Z,-1.28
2018-01-15T20:45:22.599Z,-1.21
2018-01-15T20:47:50.169Z,-1.23
2018-01-15T20:50:17.775Z,-1.21
2018-01-15T20:52:45.461Z,-1.00
2018-01-15T20:55:13.249Z,-1.18
2018-01-15T20:57:40.805Z,-1.11
2018-01-15T21:00:11.058Z,-1.32
2018-01-15T21:02:39.595Z,-1.27
2018-01-15T21:05:07.175Z,-1.41
2018-01-15T21:07:35.216Z,-1.59
2018-01-15T21:10:03.688Z,-1.39
2018-01-15T21:12:31.282Z,-1.21
2018-01-15T21:14:58.956Z,-1.45
2018-01-15T21:17:26.542Z,-1.22
2018-01-15T21:19:54.103Z,-1.55
2018-01-15T21:22:21.779Z,-1.45
2018-01-15T21:24:49.405Z,-1.56
2018-01-15T21:27:17.001Z,-1.23
2018-01-15T21:29:44.709Z,-1.23
2018-01-15T21:32:13.238Z,-1.18
2018-01-15T21:34:41.671Z,-1.22
2018-01-15T21:37:09.494Z,-1.26
2018-01-15T21:39:37.204Z,-1.11
2018-01-15T21:42:04.811Z,-1.03
2018-01-15T21:44:32.357Z,-1.17
2018-01-15T21:47:00.042Z,-1.11
2018-01-15T21:49:27.843Z,-1.40
2018-01-15T21:51:55.435Z,-1.09
2018-01-15T21:54:23.158Z,-1.30
2018-01-15T21:56:50.805Z,-1.41
2018-01-15T21:59:18.382Z,-1.18
2018-01-15T22:01:46.115Z,-1.36
2018-01-15T22:04:13.671Z,-1.17
2018-01-15T22:06:41.503Z,-1.24
2018-01-15T22:09:09.210Z,-1.18
2018-01-15T22:11:36.779Z,-1.17
2018-01-15T22:14:04.726Z,-1.05
2018-01-15T22:16:32.406Z,-1.22
2018-01-15T22:19:00.007Z,-1.34
2018-01-15T22:21:27.853Z,-1.30
2018-01-15T22:23:55.787Z,-1.14
2018-01-15T22:26:23.567Z,-1.12
2018-01-15T22:28:51.178Z,-0.31
2018-01-15T22:31:18.910Z,-1.11
2018-01-15T22:33:47.662Z,-0.99
2018-01-15T22:36:17.250Z,-1.06
2018-01-15T22:38:50.066Z,-1.10
2018-01-15T22:41:17.680Z,-1.24
2018-01-15T22:43:45.833Z,-1.21
2018-01-15T22:46:14.006Z,-1.07
2018-01-15T22:48:42.477Z,-1.31
2018-01-15T22:58:50.943Z,-0.97
2018-01-15T23:01:20.616Z,-1.12
2018-01-15T23:03:48.211Z,-1.10
2018-01-15T23:06:15.787Z,-1.12
2018-01-15T23:08:43.465Z,-1.18
2018-01-15T23:11:11.057Z,-1.17
2018-01-15T23:13:38.607Z,-1.00
2018-01-15T23:16:06.305Z,-1.05
2018-01-15T23:18:33.901Z,-1.23
2018-01-15T23:21:01.985Z,-1.03
2018-01-15T23:23:29.662Z,-0.84
2018-01-15T23:25:57.201Z,-0.85
2018-01-15T23:28:25.429Z,-0.96
2018-01-15T23:30:53.133Z,-1.02
2018-01-15T23:33:20.707Z,-1.05
2018-01-15T23:35:48.360Z,-0.85
2018-01-15T23:38:16.057Z,-0.86
2018-01-15T23:40:43.640Z,-1.09
2018-01-15T23:43:11.275Z,-0.91
2018-01-15T23:45:38.984Z,-0.70
2018-01-15T23:48:06.867Z,-0.71
2018-01-15T23:50:35.213Z,-0.67
2018-01-15T23:53:02.875Z,-0.76
2018-01-15T23:55:30.492Z,-0.50
2018-01-15T23:57:58.288Z,-0.66
